sensor_id;sensor_type;location;lat;lon;timestamp;P1;durP1;ratioP1;P2;durP2;ratioP2
18340;SDS011;9296;48.084;16.352;2023-08-12T00:01:01;6.50;;;5.13;;
18340;SDS011;9296;48.084;16.352;2023-08-12T00:03:28;5.78;;;5.20;;
18340;SDS011;9296;48.084;16.352;2023-08-12T00:05:56;7.20;;;5.60;;
18340;SDS011;9296;48.084;16.352;2023-08-12T00:08:25;6.45;;;5.25;;
18340;SDS011;9296;48.084;16.352;2023-08-12T00:10:52;6.78;;;5.32;;
18340;SDS011;9296;48.084;16.352;2023-08-12T00:13:21;6.53;;;5.03;;
18340;SDS011;9296;48.084;16.352;2023-08-12T00:15:48;6.35;;;5.63;;
18340;SDS011;9296;48.084;16.352;2023-08-12T00:18:15;5.47;;;4.93;;
18340;SDS011;9296;48.084;16.352;2023-08-12T00:20:42;6.00;;;4.75;;
18340;SDS011;9296;48.084;16.352;2023-08-12T00:23:10;7.50;;;5.65;;
18340;SDS011;9296;48.084;16.352;2023-08-12T00:25:37;6.60;;;5.53;;
18340;SDS011;9296;48.084;16.352;2023-08-12T00:28:04;6.95;;;5.78;;
18340;SDS011;9296;48.084;16.352;2023-08-12T00:30:33;6.43;;;5.38;;
18340;SDS011;9296;48.084;16.352;2023-08-12T00:33:00;6.50;;;5.78;;
18340;SDS011;9296;48.084;16.352;2023-08-12T00:35:27;8.23;;;5.75;;
18340;SDS011;9296;48.084;16.352;2023-08-12T00:37:54;9.68;;;5.72;;
18340;SDS011;9296;48.084;16.352;2023-08-12T00:40:21;6.97;;;5.22;;
18340;SDS011;9296;48.084;16.352;2023-08-12T00:42:49;9.10;;;6.10;;
18340;SDS011;9296;48.084;16.352;2023-08-12T00:45:16;6.00;;;5.40;;
18340;SDS011;9296;48.084;16.352;2023-08-12T00:47:44;5.85;;;5.25;;
18340;SDS011;9296;48.084;16.352;2023-08-12T00:50:12;5.95;;;5.28;;
18340;SDS011;9296;48.084;16.352;2023-08-12T00:52:41;8.50;;;5.88;;
18340;SDS011;9296;48.084;16.352;2023-08-12T00:55:08;7.13;;;5.40;;
18340;SDS011;9296;48.084;16.352;2023-08-12T00:57:36;6.38;;;5.40;;
18340;SDS011;9296;48.084;16.352;2023-08-12T01:00:03;5.88;;;5.18;;
18340;SDS011;9296;48.084;16.352;2023-08-12T01:02:31;5.57;;;5.00;;
18340;SDS011;9296;48.084;16.352;2023-08-12T01:04:59;6.47;;;5.38;;
18340;SDS011;9296;48.084;16.352;2023-08-12T01:07:26;6.63;;;5.50;;
18340;SDS011;9296;48.084;16.352;2023-08-12T01:09:54;6.70;;;5.45;;
18340;SDS011;9296;48.084;16.352;2023-08-12T01:12:23;6.10;;;5.22;;
18340;SDS011;9296;48.084;16.352;2023-08-12T01:14:53;8.38;;;5.97;;
18340;SDS011;9296;48.084;16.352;2023-08-12T01:17:23;7.97;;;6.15;;
18340;SDS011;9296;48.084;16.352;2023-08-12T01:19:50;7.75;;;6.65;;
18340;SDS011;9296;48.084;16.352;2023-08-12T01:22:19;6.65;;;6.00;;
18340;SDS011;9296;48.084;16.352;2023-08-12T01:24:50;8.02;;;6.45;;
18340;SDS011;9296;48.084;16.352;2023-08-12T01:27:18;6.90;;;6.13;;
18340;SDS011;9296;48.084;16.352;2023-08-12T01:29:46;8.63;;;6.25;;
18340;SDS011;9296;48.084;16.352;2023-08-12T01:32:23;6.90;;;6.20;;
18340;SDS011;9296;48.084;16.352;2023-08-12T01:34:53;7.35;;;6.05;;
18340;SDS011;9296;48.084;16.352;2023-08-12T01:37:23;7.60;;;6.50;;
18340;SDS011;9296;48.084;16.352;2023-08-12T01:39:53;6.80;;;6.07;;
18340;SDS011;9296;48.084;16.352;2023-08-12T01:42:21;6.47;;;5.80;;
18340;SDS011;9296;48.084;16.352;2023-08-12T01:44:48;8.25;;;6.90;;
18340;SDS011;9296;48.084;16.352;2023-08-12T01:47:16;9.15;;;6.30;;
18340;SDS011;9296;48.084;16.352;2023-08-12T01:49:43;8.15;;;6.28;;
18340;SDS011;9296;48.084;16.352;2023-08-12T01:52:10;7.20;;;6.50;;
18340;SDS011;9296;48.084;16.352;2023-08-12T01:54:38;7.85;;;6.72;;
18340;SDS011;9296;48.084;16.352;2023-08-12T01:57:06;7.72;;;6.80;;
18340;SDS011;9296;48.084;16.352;2023-08-12T01:59:34;7.45;;;6.68;;
18340;SDS011;9296;48.084;16.352;2023-08-12T02:02:01;8.18;;;6.60;;
18340;SDS011;9296;48.084;16.352;2023-08-12T02:04:29;7.15;;;6.25;;
18340;SDS011;9296;48.084;16.352;2023-08-12T02:06:56;7.95;;;6.22;;
18340;SDS011;9296;48.084;16.352;2023-08-12T02:09:23;8.18;;;6.40;;
18340;SDS011;9296;48.084;16.352;2023-08-12T02:11:50;6.63;;;6.00;;
18340;SDS011;9296;48.084;16.352;2023-08-12T02:14:19;9.15;;;6.85;;
18340;SDS011;9296;48.084;16.352;2023-08-12T02:16:46;7.40;;;6.43;;
18340;SDS011;9296;48.084;16.352;2023-08-12T02:19:13;8.18;;;6.88;;
18340;SDS011;9296;48.084;16.352;2023-08-12T02:21:41;7.00;;;6.30;;
18340;SDS011;9296;48.084;16.352;2023-08-12T02:24:08;7.53;;;5.80;;
18340;SDS011;9296;48.084;16.352;2023-08-12T02:26:36;6.80;;;6.13;;
18340;SDS011;9296;48.084;16.352;2023-08-12T02:29:04;8.82;;;6.70;;
18340;SDS011;9296;48.084;16.352;2023-08-12T02:31:32;7.97;;;6.50;;
18340;SDS011;9296;48.084;16.352;2023-08-12T02:33:59;7.15;;;6.45;;
18340;SDS011;9296;48.084;16.352;2023-08-12T02:36:26;9.07;;;6.68;;
18340;SDS011;9296;48.084;16.352;2023-08-12T02:38:53;8.27;;;7.10;;
18340;SDS011;9296;48.084;16.352;2023-08-12T02:41:20;7.32;;;6.63;;
18340;SDS011;9296;48.084;16.352;2023-08-12T02:43:48;7.63;;;6.78;;
18340;SDS011;9296;48.084;16.352;2023-08-12T02:46:15;8.48;;;6.55;;
18340;SDS011;9296;48.084;16.352;2023-08-12T02:48:44;8.35;;;7.03;;
18340;SDS011;9296;48.084;16.352;2023-08-12T02:51:13;8.02;;;7.05;;
18340;SDS011;9296;48.084;16.352;2023-08-12T02:53:40;8.15;;;7.35;;
18340;SDS011;9296;48.084;16.352;2023-08-12T02:56:07;9.02;;;7.55;;
18340;SDS011;9296;48.084;16.352;2023-08-12T02:58:34;7.80;;;6.78;;
18340;SDS011;9296;48.084;16.352;2023-08-12T03:01:02;6.97;;;6.35;;
18340;SDS011;9296;48.084;16.352;2023-08-12T03:03:30;8.05;;;7.25;;
18340;SDS011;9296;48.084;16.352;2023-08-12T03:05:58;7.47;;;6.68;;
18340;SDS011;9296;48.084;16.352;2023-08-12T03:08:26;8.73;;;7.00;;
18340;SDS011;9296;48.084;16.352;2023-08-12T03:10:57;8.73;;;7.13;;
18340;SDS011;9296;48.084;16.352;2023-08-12T03:13:25;8.00;;;7.20;;
18340;SDS011;9296;48.084;16.352;2023-08-12T03:15:52;12.18;;;7.45;;
18340;SDS011;9296;48.084;16.352;2023-08-12T03:18:20;7.75;;;7.00;;
18340;SDS011;9296;48.084;16.352;2023-08-12T03:20:47;8.07;;;7.28;;
18340;SDS011;9296;48.084;16.352;2023-08-12T03:23:16;8.05;;;7.22;;
18340;SDS011;9296;48.084;16.352;2023-08-12T03:25:43;7.43;;;6.45;;
18340;SDS011;9296;48.084;16.352;2023-08-12T03:28:10;7.75;;;6.60;;
18340;SDS011;9296;48.084;16.352;2023-08-12T03:30:37;7.53;;;6.80;;
18340;SDS011;9296;48.084;16.352;2023-08-12T03:33:04;7.38;;;6.63;;
18340;SDS011;9296;48.084;16.352;2023-08-12T03:35:31;8.95;;;7.28;;
18340;SDS011;9296;48.084;16.352;2023-08-12T03:37:59;8.88;;;7.00;;
18340;SDS011;9296;48.084;16.352;2023-08-12T03:40:27;8.38;;;7.30;;
18340;SDS011;9296;48.084;16.352;2023-08-12T03:42:54;7.80;;;7.10;;
18340;SDS011;9296;48.084;16.352;2023-08-12T03:45:22;10.25;;;7.70;;
18340;SDS011;9296;48.084;16.352;2023-08-12T03:47:49;9.88;;;7.97;;
18340;SDS011;9296;48.084;16.352;2023-08-12T03:50:16;8.25;;;7.13;;
18340;SDS011;9296;48.084;16.352;2023-08-12T03:52:43;8.98;;;7.30;;
18340;SDS011;9296;48.084;16.352;2023-08-12T03:55:10;7.53;;;6.70;;
18340;SDS011;9296;48.084;16.352;2023-08-12T03:57:39;9.13;;;7.13;;
18340;SDS011;9296;48.084;16.352;2023-08-12T04:00:06;7.53;;;6.70;;
18340;SDS011;9296;48.084;16.352;2023-08-12T04:02:34;7.68;;;6.97;;
18340;SDS011;9296;48.084;16.352;2023-08-12T04:05:01;7.65;;;6.93;;
18340;SDS011;9296;48.084;16.352;2023-08-12T04:07:28;10.98;;;7.00;;
18340;SDS011;9296;48.084;16.352;2023-08-12T04:09:55;7.40;;;6.68;;
18340;SDS011;9296;48.084;16.352;2023-08-12T04:12:23;7.95;;;7.15;;
18340;SDS011;9296;48.084;16.352;2023-08-12T04:14:51;8.57;;;7.70;;
18340;SDS011;9296;48.084;16.352;2023-08-12T04:17:18;8.73;;;7.82;;
18340;SDS011;9296;48.084;16.352;2023-08-12T04:19:45;9.00;;;7.72;;
18340;SDS011;9296;48.084;16.352;2023-08-12T04:22:14;8.43;;;7.60;;
18340;SDS011;9296;48.084;16.352;2023-08-12T04:24:41;8.30;;;7.43;;
18340;SDS011;9296;48.084;16.352;2023-08-12T04:27:09;8.85;;;7.00;;
18340;SDS011;9296;48.084;16.352;2023-08-12T04:29:36;7.47;;;6.65;;
18340;SDS011;9296;48.084;16.352;2023-08-12T04:32:05;8.07;;;7.18;;
18340;SDS011;9296;48.084;16.352;2023-08-12T04:34:32;8.88;;;6.72;;
18340;SDS011;9296;48.084;16.352;2023-08-12T04:36:59;8.05;;;6.82;;
18340;SDS011;9296;48.084;16.352;2023-08-12T04:39:26;9.68;;;7.15;;
18340;SDS011;9296;48.084;16.352;2023-08-12T04:41:53;8.57;;;6.80;;
18340;SDS011;9296;48.084;16.352;2023-08-12T04:44:20;9.70;;;6.75;;
18340;SDS011;9296;48.084;16.352;2023-08-12T04:46:47;8.32;;;6.68;;
18340;SDS011;9296;48.084;16.352;2023-08-12T04:49:16;7.68;;;6.65;;
18340;SDS011;9296;48.084;16.352;2023-08-12T04:51:43;8.63;;;6.75;;
18340;SDS011;9296;48.084;16.352;2023-08-12T04:54:11;6.70;;;6.00;;
18340;SDS011;9296;48.084;16.352;2023-08-12T04:56:38;8.13;;;6.85;;
18340;SDS011;9296;48.084;16.352;2023-08-12T04:59:05;9.30;;;6.88;;
18340;SDS011;9296;48.084;16.352;2023-08-12T05:01:33;7.53;;;6.50;;
18340;SDS011;9296;48.084;16.352;2023-08-12T05:04:00;7.90;;;7.00;;
18340;SDS011;9296;48.084;16.352;2023-08-12T05:06:29;7.95;;;6.20;;
18340;SDS011;9296;48.084;16.352;2023-08-12T05:08:56;7.25;;;6.55;;
18340;SDS011;9296;48.084;16.352;2023-08-12T05:11:23;7.35;;;6.63;;
18340;SDS011;9296;48.084;16.352;2023-08-12T05:13:50;8.65;;;6.90;;
18340;SDS011;9296;48.084;16.352;2023-08-12T05:16:17;7.00;;;6.30;;
18340;SDS011;9296;48.084;16.352;2023-08-12T05:18:44;6.82;;;6.13;;
18340;SDS011;9296;48.084;16.352;2023-08-12T05:21:12;8.05;;;6.25;;
18340;SDS011;9296;48.084;16.352;2023-08-12T05:23:40;7.65;;;6.45;;
18340;SDS011;9296;48.084;16.352;2023-08-12T05:26:07;6.93;;;6.25;;
18340;SDS011;9296;48.084;16.352;2023-08-12T05:28:34;7.50;;;6.70;;
18340;SDS011;9296;48.084;16.352;2023-08-12T05:31:01;9.23;;;7.35;;
18340;SDS011;9296;48.084;16.352;2023-08-12T05:33:29;7.20;;;6.50;;
18340;SDS011;9296;48.084;16.352;2023-08-12T05:35:56;7.90;;;6.78;;
18340;SDS011;9296;48.084;16.352;2023-08-12T05:38:23;8.60;;;6.57;;
18340;SDS011;9296;48.084;16.352;2023-08-12T05:40:52;7.63;;;6.70;;
18340;SDS011;9296;48.084;16.352;2023-08-12T05:43:19;8.82;;;6.90;;
18340;SDS011;9296;48.084;16.352;2023-08-12T05:45:47;10.07;;;7.18;;
18340;SDS011;9296;48.084;16.352;2023-08-12T05:48:14;7.40;;;6.65;;
18340;SDS011;9296;48.084;16.352;2023-08-12T05:50:41;11.48;;;6.68;;
18340;SDS011;9296;48.084;16.352;2023-08-12T05:53:08;7.15;;;6.45;;
18340;SDS011;9296;48.084;16.352;2023-08-12T05:55:36;7.70;;;6.75;;
18340;SDS011;9296;48.084;16.352;2023-08-12T05:58:04;7.55;;;6.50;;
18340;SDS011;9296;48.084;16.352;2023-08-12T06:00:31;7.75;;;6.50;;
18340;SDS011;9296;48.084;16.352;2023-08-12T06:02:58;7.00;;;6.30;;
18340;SDS011;9296;48.084;16.352;2023-08-12T06:05:26;6.18;;;5.65;;
18340;SDS011;9296;48.084;16.352;2023-08-12T06:07:53;7.13;;;6.43;;
18340;SDS011;9296;48.084;16.352;2023-08-12T06:10:38;8.10;;;6.88;;
18340;SDS011;9296;48.084;16.352;2023-08-12T06:13:07;7.10;;;6.28;;
18340;SDS011;9296;48.084;16.352;2023-08-12T06:15:34;6.90;;;6.07;;
18340;SDS011;9296;48.084;16.352;2023-08-12T06:18:01;7.05;;;5.65;;
18340;SDS011;9296;48.084;16.352;2023-08-12T06:20:28;7.97;;;5.80;;
18340;SDS011;9296;48.084;16.352;2023-08-12T06:22:55;6.55;;;5.80;;
18340;SDS011;9296;48.084;16.352;2023-08-12T06:25:23;6.88;;;5.70;;
18340;SDS011;9296;48.084;16.352;2023-08-12T06:27:50;7.95;;;5.85;;
18340;SDS011;9296;48.084;16.352;2023-08-12T06:30:18;6.10;;;5.20;;
18340;SDS011;9296;48.084;16.352;2023-08-12T06:32:46;8.70;;;6.35;;
18340;SDS011;9296;48.084;16.352;2023-08-12T06:35:13;7.65;;;6.10;;
18340;SDS011;9296;48.084;16.352;2023-08-12T06:37:40;6.35;;;5.75;;
18340;SDS011;9296;48.084;16.352;2023-08-12T06:40:07;7.45;;;5.57;;
18340;SDS011;9296;48.084;16.352;2023-08-12T06:42:34;6.93;;;5.60;;
18340;SDS011;9296;48.084;16.352;2023-08-12T06:45:02;6.07;;;5.28;;
18340;SDS011;9296;48.084;16.352;2023-08-12T06:47:31;6.05;;;5.40;;
18340;SDS011;9296;48.084;16.352;2023-08-12T06:49:58;6.00;;;5.43;;
18340;SDS011;9296;48.084;16.352;2023-08-12T06:52:25;6.22;;;5.38;;
18340;SDS011;9296;48.084;16.352;2023-08-12T06:54:52;5.55;;;5.05;;
18340;SDS011;9296;48.084;16.352;2023-08-12T06:57:20;7.20;;;5.68;;
18340;SDS011;9296;48.084;16.352;2023-08-12T06:59:47;7.15;;;6.20;;
18340;SDS011;9296;48.084;16.352;2023-08-12T07:02:14;7.60;;;5.30;;
18340;SDS011;9296;48.084;16.352;2023-08-12T07:04:43;7.00;;;5.85;;
18340;SDS011;9296;48.084;16.352;2023-08-12T07:07:10;8.00;;;5.82;;
18340;SDS011;9296;48.084;16.352;2023-08-12T07:09:37;6.90;;;6.20;;
18340;SDS011;9296;48.084;16.352;2023-08-12T07:12:05;6.72;;;5.97;;
18340;SDS011;9296;48.084;16.352;2023-08-12T07:14:32;7.75;;;5.38;;
18340;SDS011;9296;48.084;16.352;2023-08-12T07:16:59;7.20;;;5.85;;
18340;SDS011;9296;48.084;16.352;2023-08-12T07:19:26;6.03;;;5.18;;
18340;SDS011;9296;48.084;16.352;2023-08-12T07:21:55;6.53;;;4.85;;
18340;SDS011;9296;48.084;16.352;2023-08-12T07:24:22;7.78;;;5.30;;
18340;SDS011;9296;48.084;16.352;2023-08-12T07:26:50;4.82;;;4.43;;
18340;SDS011;9296;48.084;16.352;2023-08-12T07:29:17;5.05;;;4.65;;
18340;SDS011;9296;48.084;16.352;2023-08-12T07:31:44;6.95;;;4.45;;
18340;SDS011;9296;48.084;16.352;2023-08-12T07:34:11;6.45;;;5.00;;
18340;SDS011;9296;48.084;16.352;2023-08-12T07:36:38;5.30;;;4.80;;
18340;SDS011;9296;48.084;16.352;2023-08-12T07:39:07;5.32;;;4.28;;
18340;SDS011;9296;48.084;16.352;2023-08-12T07:41:34;5.15;;;4.30;;
18340;SDS011;9296;48.084;16.352;2023-08-12T07:44:02;5.43;;;4.70;;
18340;SDS011;9296;48.084;16.352;2023-08-12T07:46:29;4.47;;;4.07;;
18340;SDS011;9296;48.084;16.352;2023-08-12T07:48:57;4.75;;;4.07;;
18340;SDS011;9296;48.084;16.352;2023-08-12T07:51:24;6.28;;;4.07;;
18340;SDS011;9296;48.084;16.352;2023-08-12T07:53:51;5.15;;;4.22;;
18340;SDS011;9296;48.084;16.352;2023-08-12T07:56:20;4.60;;;4.20;;
18340;SDS011;9296;48.084;16.352;2023-08-12T07:58:47;5.10;;;4.45;;
18340;SDS011;9296;48.084;16.352;2023-08-12T08:01:14;5.25;;;4.03;;
18340;SDS011;9296;48.084;16.352;2023-08-12T08:03:41;5.10;;;3.95;;
18340;SDS011;9296;48.084;16.352;2023-08-12T08:06:08;6.50;;;4.15;;
18340;SDS011;9296;48.084;16.352;2023-08-12T08:08:36;3.90;;;3.60;;
18340;SDS011;9296;48.084;16.352;2023-08-12T08:11:03;5.22;;;3.67;;
18340;SDS011;9296;48.084;16.352;2023-08-12T08:13:31;4.15;;;3.30;;
18340;SDS011;9296;48.084;16.352;2023-08-12T08:15:58;5.13;;;3.72;;
18340;SDS011;9296;48.084;16.352;2023-08-12T08:18:26;5.75;;;3.70;;
18340;SDS011;9296;48.084;16.352;2023-08-12T08:20:53;3.70;;;3.40;;
18340;SDS011;9296;48.084;16.352;2023-08-12T08:23:20;3.50;;;3.20;;
18340;SDS011;9296;48.084;16.352;2023-08-12T08:25:47;3.67;;;3.38;;
18340;SDS011;9296;48.084;16.352;2023-08-12T08:28:15;3.70;;;3.40;;
18340;SDS011;9296;48.084;16.352;2023-08-12T08:30:44;3.50;;;3.20;;
18340;SDS011;9296;48.084;16.352;2023-08-12T08:33:11;6.40;;;3.47;;
18340;SDS011;9296;48.084;16.352;2023-08-12T08:35:38;3.58;;;3.28;;
18340;SDS011;9296;48.084;16.352;2023-08-12T08:38:05;3.65;;;3.35;;
18340;SDS011;9296;48.084;16.352;2023-08-12T08:40:33;3.90;;;3.60;;
18340;SDS011;9296;48.084;16.352;2023-08-12T08:43:02;3.70;;;3.40;;
18340;SDS011;9296;48.084;16.352;2023-08-12T08:45:30;4.80;;;3.70;;
18340;SDS011;9296;48.084;16.352;2023-08-12T08:48:00;3.90;;;3.47;;
18340;SDS011;9296;48.084;16.352;2023-08-12T08:50:27;3.60;;;3.30;;
18340;SDS011;9296;48.084;16.352;2023-08-12T08:52:54;4.38;;;3.83;;
18340;SDS011;9296;48.084;16.352;2023-08-12T08:55:22;4.03;;;3.60;;
18340;SDS011;9296;48.084;16.352;2023-08-12T08:57:50;3.83;;;3.53;;
18340;SDS011;9296;48.084;16.352;2023-08-12T09:00:17;3.85;;;3.45;;
18340;SDS011;9296;48.084;16.352;2023-08-12T09:02:46;3.03;;;2.75;;
18340;SDS011;9296;48.084;16.352;2023-08-12T09:05:15;4.20;;;3.60;;
18340;SDS011;9296;48.084;16.352;2023-08-12T09:07:43;6.32;;;3.90;;
18340;SDS011;9296;48.084;16.352;2023-08-12T09:10:10;4.80;;;4.22;;
18340;SDS011;9296;48.084;16.352;2023-08-12T09:12:38;5.10;;;4.32;;
18340;SDS011;9296;48.084;16.352;2023-08-12T09:15:05;6.05;;;3.97;;
18340;SDS011;9296;48.084;16.352;2023-08-12T09:17:33;7.75;;;4.72;;
18340;SDS011;9296;48.084;16.352;2023-08-12T09:20:00;4.57;;;4.18;;
18340;SDS011;9296;48.084;16.352;2023-08-12T09:22:29;4.82;;;4.38;;
18340;SDS011;9296;48.084;16.352;2023-08-12T09:24:56;4.07;;;3.67;;
18340;SDS011;9296;48.084;16.352;2023-08-12T09:27:24;4.10;;;3.70;;
18340;SDS011;9296;48.084;16.352;2023-08-12T09:29:54;5.63;;;3.80;;
18340;SDS011;9296;48.084;16.352;2023-08-12T09:32:22;7.75;;;4.18;;
18340;SDS011;9296;48.084;16.352;2023-08-12T09:34:50;4.25;;;3.88;;
18340;SDS011;9296;48.084;16.352;2023-08-12T09:37:18;4.65;;;3.45;;
18340;SDS011;9296;48.084;16.352;2023-08-12T09:39:47;4.65;;;3.75;;
18340;SDS011;9296;48.084;16.352;2023-08-12T09:42:15;5.35;;;3.50;;
18340;SDS011;9296;48.084;16.352;2023-08-12T09:44:42;3.88;;;3.47;;
18340;SDS011;9296;48.084;16.352;2023-08-12T09:47:09;3.63;;;3.30;;
18340;SDS011;9296;48.084;16.352;2023-08-12T09:49:38;5.30;;;3.30;;
18340;SDS011;9296;48.084;16.352;2023-08-12T09:52:06;4.05;;;3.42;;
18340;SDS011;9296;48.084;16.352;2023-08-12T09:54:34;3.58;;;3.08;;
18340;SDS011;9296;48.084;16.352;2023-08-12T09:57:04;3.63;;;3.33;;
18340;SDS011;9296;48.084;16.352;2023-08-12T09:59:33;3.60;;;3.20;;
18340;SDS011;9296;48.084;16.352;2023-08-12T10:02:00;3.50;;;2.97;;
18340;SDS011;9296;48.084;16.352;2023-08-12T10:04:33;4.32;;;3.00;;
18340;SDS011;9296;48.084;16.352;2023-08-12T10:07:00;2.95;;;2.65;;
18340;SDS011;9296;48.084;16.352;2023-08-12T10:09:29;5.22;;;2.90;;
18340;SDS011;9296;48.084;16.352;2023-08-12T10:11:56;3.10;;;2.80;;
18340;SDS011;9296;48.084;16.352;2023-08-12T10:14:25;4.00;;;2.83;;
18340;SDS011;9296;48.084;16.352;2023-08-12T10:16:53;5.00;;;3.38;;
18340;SDS011;9296;48.084;16.352;2023-08-12T10:19:21;3.72;;;3.40;;
18340;SDS011;9296;48.084;16.352;2023-08-12T10:21:50;3.67;;;3.30;;
18340;SDS011;9296;48.084;16.352;2023-08-12T10:24:20;5.00;;;3.30;;
18340;SDS011;9296;48.084;16.352;2023-08-12T10:26:48;3.53;;;3.22;;
18340;SDS011;9296;48.084;16.352;2023-08-12T10:29:16;2.95;;;2.67;;
18340;SDS011;9296;48.084;16.352;2023-08-12T10:31:45;3.20;;;2.90;;
18340;SDS011;9296;48.084;16.352;2023-08-12T10:34:17;3.65;;;3.20;;
18340;SDS011;9296;48.084;16.352;2023-08-12T10:36:45;3.83;;;3.03;;
18340;SDS011;9296;48.084;16.352;2023-08-12T10:39:12;3.90;;;2.95;;
18340;SDS011;9296;48.084;16.352;2023-08-12T10:41:43;4.13;;;3.20;;
18340;SDS011;9296;48.084;16.352;2023-08-12T10:44:16;3.20;;;2.88;;
18340;SDS011;9296;48.084;16.352;2023-08-12T10:46:51;4.07;;;2.95;;
18340;SDS011;9296;48.084;16.352;2023-08-12T10:49:19;3.72;;;2.70;;
18340;SDS011;9296;48.084;16.352;2023-08-12T10:51:47;4.20;;;2.65;;
18340;SDS011;9296;48.084;16.352;2023-08-12T10:54:15;4.40;;;3.13;;
18340;SDS011;9296;48.084;16.352;2023-08-12T11:02:14;2.97;;;2.70;;
18340;SDS011;9296;48.084;16.352;2023-08-12T11:04:42;3.15;;;2.80;;
18340;SDS011;9296;48.084;16.352;2023-08-12T11:07:14;3.33;;;2.47;;
18340;SDS011;9296;48.084;16.352;2023-08-12T11:09:42;3.83;;;2.72;;
18340;SDS011;9296;48.084;16.352;2023-08-12T11:12:09;3.33;;;2.60;;
18340;SDS011;9296;48.084;16.352;2023-08-12T11:14:46;2.60;;;2.40;;
18340;SDS011;9296;48.084;16.352;2023-08-12T11:17:16;2.90;;;2.60;;
18340;SDS011;9296;48.084;16.352;2023-08-12T11:19:43;2.92;;;2.40;;
18340;SDS011;9296;48.084;16.352;2023-08-12T11:22:10;3.20;;;2.45;;
18340;SDS011;9296;48.084;16.352;2023-08-12T11:24:39;3.58;;;2.47;;
18340;SDS011;9296;48.084;16.352;2023-08-12T11:27:09;3.30;;;2.88;;
18340;SDS011;9296;48.084;16.352;2023-08-12T11:29:37;3.83;;;2.58;;
18340;SDS011;9296;48.084;16.352;2023-08-12T11:32:05;4.55;;;2.47;;
18340;SDS011;9296;48.084;16.352;2023-08-12T11:34:33;2.35;;;2.15;;
18340;SDS011;9296;48.084;16.352;2023-08-12T11:37:02;3.70;;;2.35;;
18340;SDS011;9296;48.084;16.352;2023-08-12T11:39:29;4.72;;;2.40;;
18340;SDS011;9296;48.084;16.352;2023-08-12T11:41:57;2.55;;;2.35;;
18340;SDS011;9296;48.084;16.352;2023-08-12T11:44:24;2.45;;;2.25;;
18340;SDS011;9296;48.084;16.352;2023-08-12T11:46:51;2.40;;;2.20;;
18340;SDS011;9296;48.084;16.352;2023-08-12T11:49:18;2.60;;;2.25;;
18340;SDS011;9296;48.084;16.352;2023-08-12T11:51:47;3.17;;;2.28;;
18340;SDS011;9296;48.084;16.352;2023-08-12T11:54:15;2.55;;;2.00;;
18340;SDS011;9296;48.084;16.352;2023-08-12T11:56:42;2.40;;;2.20;;
18340;SDS011;9296;48.084;16.352;2023-08-12T11:59:10;2.38;;;2.17;;
18340;SDS011;9296;48.084;16.352;2023-08-12T12:01:37;4.07;;;2.28;;
18340;SDS011;9296;48.084;16.352;2023-08-12T12:04:04;2.92;;;2.50;;
18340;SDS011;9296;48.084;16.352;2023-08-12T12:06:32;3.17;;;1.98;;
18340;SDS011;9296;48.084;16.352;2023-08-12T12:09:01;2.33;;;2.15;;
18340;SDS011;9296;48.084;16.352;2023-08-12T12:11:30;2.65;;;1.88;;
18340;SDS011;9296;48.084;16.352;2023-08-12T12:13:59;1.88;;;1.77;;
18340;SDS011;9296;48.084;16.352;2023-08-12T12:16:35;2.30;;;2.10;;
18340;SDS011;9296;48.084;16.352;2023-08-12T12:19:03;2.50;;;2.30;;
18340;SDS011;9296;48.084;16.352;2023-08-12T12:21:38;2.65;;;1.85;;
18340;SDS011;9296;48.084;16.352;2023-08-12T12:24:07;3.40;;;1.90;;
18340;SDS011;9296;48.084;16.352;2023-08-12T12:26:35;2.30;;;2.10;;
18340;SDS011;9296;48.084;16.352;2023-08-12T12:29:02;3.78;;;1.85;;
18340;SDS011;9296;48.084;16.352;2023-08-12T12:31:31;3.47;;;2.35;;
18340;SDS011;9296;48.084;16.352;2023-08-12T12:33:59;3.25;;;1.95;;
18340;SDS011;9296;48.084;16.352;2023-08-12T12:36:26;2.30;;;2.10;;
18340;SDS011;9296;48.084;16.352;2023-08-12T12:38:54;3.45;;;2.30;;
18340;SDS011;9296;48.084;16.352;2023-08-12T12:41:22;1.85;;;1.70;;
18340;SDS011;9296;48.084;16.352;2023-08-12T12:43:49;5.43;;;1.90;;
18340;SDS011;9296;48.084;16.352;2023-08-12T12:46:16;2.95;;;2.10;;
18340;SDS011;9296;48.084;16.352;2023-08-12T12:48:44;3.20;;;2.10;;
18340;SDS011;9296;48.084;16.352;2023-08-12T12:51:11;3.08;;;2.35;;
18340;SDS011;9296;48.084;16.352;2023-08-12T12:53:38;2.20;;;2.00;;
18340;SDS011;9296;48.084;16.352;2023-08-12T12:56:06;2.30;;;2.10;;
18340;SDS011;9296;48.084;16.352;2023-08-12T12:58:35;2.60;;;2.40;;
18340;SDS011;9296;48.084;16.352;2023-08-12T13:01:03;2.20;;;2.00;;
18340;SDS011;9296;48.084;16.352;2023-08-12T13:03:30;2.80;;;1.95;;
18340;SDS011;9296;48.084;16.352;2023-08-12T13:05:58;2.88;;;2.10;;
18340;SDS011;9296;48.084;16.352;2023-08-12T13:08:27;4.47;;;2.28;;
18340;SDS011;9296;48.084;16.352;2023-08-12T13:10:55;2.90;;;2.40;;
18340;SDS011;9296;48.084;16.352;2023-08-12T13:13:23;3.08;;;2.22;;
18340;SDS011;9296;48.084;16.352;2023-08-12T13:15:51;2.83;;;2.17;;
18340;SDS011;9296;48.084;16.352;2023-08-12T13:18:19;3.17;;;2.03;;
18340;SDS011;9296;48.084;16.352;2023-08-12T13:20:46;2.10;;;1.88;;
18340;SDS011;9296;48.084;16.352;2023-08-12T13:23:14;2.40;;;2.10;;
18340;SDS011;9296;48.084;16.352;2023-08-12T13:25:41;2.45;;;2.25;;
18340;SDS011;9296;48.084;16.352;2023-08-12T13:28:08;2.00;;;1.90;;
18340;SDS011;9296;48.084;16.352;2023-08-12T13:30:35;2.40;;;2.20;;
18340;SDS011;9296;48.084;16.352;2023-08-12T13:33:04;2.33;;;2.13;;
18340;SDS011;9296;48.084;16.352;2023-08-12T13:35:31;3.05;;;1.98;;
18340;SDS011;9296;48.084;16.352;2023-08-12T13:37:59;2.15;;;1.90;;
18340;SDS011;9296;48.084;16.352;2023-08-12T13:40:26;6.15;;;2.22;;
18340;SDS011;9296;48.084;16.352;2023-08-12T13:42:53;3.25;;;2.10;;
18340;SDS011;9296;48.084;16.352;2023-08-12T13:45:20;2.15;;;1.95;;
18340;SDS011;9296;48.084;16.352;2023-08-12T13:47:49;4.13;;;1.85;;
18340;SDS011;9296;48.084;16.352;2023-08-12T13:50:17;2.75;;;2.20;;
18340;SDS011;9296;48.084;16.352;2023-08-12T13:52:45;3.63;;;2.35;;
18340;SDS011;9296;48.084;16.352;2023-08-12T13:55:14;2.20;;;2.00;;
18340;SDS011;9296;48.084;16.352;2023-08-12T13:57:41;2.95;;;1.90;;
18340;SDS011;9296;48.084;16.352;2023-08-12T14:00:09;2.38;;;2.17;;
18340;SDS011;9296;48.084;16.352;2023-08-12T14:02:38;3.33;;;2.22;;
18340;SDS011;9296;48.084;16.352;2023-08-12T14:05:05;2.40;;;2.10;;
18340;SDS011;9296;48.084;16.352;2023-08-12T14:07:34;3.20;;;2.22;;
18340;SDS011;9296;48.084;16.352;2023-08-12T14:10:01;2.70;;;2.50;;
18340;SDS011;9296;48.084;16.352;2023-08-12T14:12:29;2.55;;;2.35;;
18340;SDS011;9296;48.084;16.352;2023-08-12T14:14:56;2.30;;;2.10;;
18340;SDS011;9296;48.084;16.352;2023-08-12T14:17:23;3.47;;;2.10;;
18340;SDS011;9296;48.084;16.352;2023-08-12T14:19:51;2.40;;;2.20;;
18340;SDS011;9296;48.084;16.352;2023-08-12T14:22:18;4.43;;;2.10;;
18340;SDS011;9296;48.084;16.352;2023-08-12T14:24:47;2.83;;;2.00;;
18340;SDS011;9296;48.084;16.352;2023-08-12T14:27:14;2.33;;;2.13;;
18340;SDS011;9296;48.084;16.352;2023-08-12T14:29:42;3.00;;;2.20;;
18340;SDS011;9296;48.084;16.352;2023-08-12T14:32:10;3.88;;;1.95;;
18340;SDS011;9296;48.084;16.352;2023-08-12T14:34:37;4.05;;;2.15;;
18340;SDS011;9296;48.084;16.352;2023-08-12T14:37:04;2.40;;;2.20;;
18340;SDS011;9296;48.084;16.352;2023-08-12T14:39:33;2.53;;;1.90;;
18340;SDS011;9296;48.084;16.352;2023-08-12T14:42:01;2.47;;;2.20;;
18340;SDS011;9296;48.084;16.352;2023-08-12T14:44:29;2.13;;;1.90;;
18340;SDS011;9296;48.084;16.352;2023-08-12T14:46:57;3.67;;;2.17;;
18340;SDS011;9296;48.084;16.352;2023-08-12T14:49:24;4.32;;;2.35;;
18340;SDS011;9296;48.084;16.352;2023-08-12T14:51:51;2.80;;;2.13;;
18340;SDS011;9296;48.084;16.352;2023-08-12T14:54:18;3.63;;;2.20;;
18340;SDS011;9296;48.084;16.352;2023-08-12T14:56:46;5.82;;;2.20;;